createdAt,value
2024-05-09T00:00:59.323Z,15.80
2024-05-09T00:03:01.346Z,15.80
2024-05-09T00:05:03.546Z,15.80
2024-05-09T00:07:05.494Z,15.80
2024-05-09T00:09:07.334Z,15.80
2024-05-09T00:11:09.450Z,15.70
2024-05-09T00:13:11.582Z,15.70
2024-05-09T00:15:13.438Z,15.70
2024-05-09T00:17:15.415Z,15.70
2024-05-09T00:19:17.428Z,15.70
2024-05-09T00:21:19.296Z,15.60
2024-05-09T00:23:21.179Z,15.60
2024-05-09T00:25:23.050Z,15.60
2024-05-09T00:27:25.374Z,15.60
2024-05-09T00:29:27.362Z,15.50
2024-05-09T00:31:29.321Z,15.50
2024-05-09T00:33:31.321Z,15.60
2024-05-09T00:35:33.494Z,15.50
2024-05-09T00:37:35.454Z,15.50
2024-05-09T00:39:37.484Z,15.50
2024-05-09T00:41:39.431Z,15.50
2024-05-09T00:43:41.357Z,15.50
2024-05-09T00:45:43.987Z,15.50
2024-05-09T00:47:47.022Z,15.50
2024-05-09T00:49:49.349Z,15.50
2024-05-09T00:51:52.762Z,15.50
2024-05-09T00:53:54.726Z,15.50
2024-05-09T00:55:57.159Z,15.50
2024-05-09T00:57:59.007Z,15.50
2024-05-09T01:00:01.381Z,15.50
2024-05-09T01:02:03.454Z,15.50
2024-05-09T01:04:05.458Z,15.50
2024-05-09T01:06:07.348Z,15.50
2024-05-09T01:08:09.828Z,15.50
2024-05-09T01:10:17.375Z,15.50
2024-05-09T01:12:24.797Z,15.50
2024-05-09T01:14:26.845Z,15.50
2024-05-09T01:16:28.705Z,15.50
2024-05-09T01:18:30.762Z,15.50
2024-05-09T01:20:40.887Z,15.60
2024-05-09T01:22:45.519Z,15.60
2024-05-09T01:24:47.303Z,15.60
2024-05-09T01:26:49.351Z,15.60
2024-05-09T01:28:51.217Z,15.60
2024-05-09T01:30:56.095Z,15.60
2024-05-09T01:32:58.332Z,15.60
2024-05-09T01:35:00.289Z,15.70
2024-05-09T01:37:02.171Z,15.60
2024-05-09T01:39:04.013Z,15.60
2024-05-09T01:41:05.934Z,15.60
2024-05-09T01:43:09.259Z,15.60
2024-05-09T01:45:12.259Z,15.70
2024-05-09T01:47:14.125Z,15.70
2024-05-09T01:49:16.194Z,15.70
2024-05-09T01:51:18.153Z,15.70
2024-05-09T01:53:20.037Z,15.70
2024-05-09T01:55:21.862Z,15.60
2024-05-09T01:57:26.491Z,15.70
2024-05-09T01:59:29.246Z,15.70
2024-05-09T02:01:31.178Z,15.60
2024-05-09T02:03:53.161Z,15.60
2024-05-09T02:05:55.160Z,15.60
2024-05-09T02:07:57.077Z,15.60
2024-05-09T02:09:58.907Z,15.60
2024-05-09T02:12:01.045Z,15.60
2024-05-09T02:14:03.118Z,15.60
2024-05-09T02:16:05.333Z,15.50
2024-05-09T02:18:07.984Z,15.50
2024-05-09T02:20:16.112Z,15.50
2024-05-09T02:22:20.726Z,15.50
2024-05-09T02:24:22.561Z,15.50
2024-05-09T02:26:24.465Z,15.50
2024-05-09T02:28:26.263Z,15.50
2024-05-09T02:32:32.993Z,15.40
2024-05-09T02:34:34.959Z,15.40
2024-05-09T02:36:38.426Z,15.40
2024-05-09T02:38:40.264Z,15.40
2024-05-09T02:40:42.095Z,15.30
2024-05-09T02:42:43.966Z,15.30
2024-05-09T02:44:45.745Z,15.30
2024-05-09T02:46:47.567Z,15.30
2024-05-09T02:48:49.538Z,15.20
2024-05-09T02:50:52.128Z,15.20
2024-05-09T02:52:54.014Z,15.20
2024-05-09T02:54:55.853Z,15.20
2024-05-09T02:56:57.668Z,15.20
2024-05-09T02:58:59.570Z,15.10
2024-05-09T03:01:01.451Z,15.10
2024-05-09T03:03:03.582Z,15.10
2024-05-09T03:05:05.684Z,15.10
2024-05-09T03:07:07.850Z,15.10
2024-05-09T03:09:09.844Z,15.10
2024-05-09T03:11:20.591Z,15.00
2024-05-09T03:13:22.459Z,15.00
2024-05-09T03:15:24.299Z,15.00
2024-05-09T03:17:26.287Z,15.00
2024-05-09T03:19:28.206Z,15.00
2024-05-09T03:21:30.072Z,14.90
2024-05-09T03:23:31.919Z,14.90
2024-05-09T03:25:34.066Z,14.90
2024-05-09T03:27:37.574Z,14.90
2024-05-09T03:29:39.407Z,14.90
2024-05-09T03:31:41.331Z,14.90
2024-05-09T03:33:43.348Z,14.90
2024-05-09T03:35:45.460Z,14.80
2024-05-09T03:37:47.353Z,14.80
2024-05-09T03:39:49.170Z,14.80
2024-05-09T03:41:50.962Z,14.80
2024-05-09T03:43:52.821Z,14.80
2024-05-09T03:45:54.724Z,14.70
2024-05-09T03:47:56.726Z,14.80
2024-05-09T03:49:58.804Z,14.70
2024-05-09T03:52:05.086Z,14.70
2024-05-09T03:54:06.916Z,14.70
2024-05-09T03:56:08.917Z,14.70
2024-05-09T03:58:12.895Z,14.70
2024-05-09T04:00:21.966Z,14.70
2024-05-09T04:02:28.175Z,14.70
2024-05-09T04:04:30.144Z,14.70
2024-05-09T04:06:32.074Z,14.70
2024-05-09T04:08:34.127Z,14.60
2024-05-09T04:10:36.096Z,14.60
2024-05-09T04:12:38.057Z,14.60
2024-05-09T04:14:39.992Z,14.60
2024-05-09T04:16:41.831Z,14.60
2024-05-09T04:18:43.812Z,14.60
2024-05-09T04:20:46.227Z,14.60
2024-05-09T04:22:48.155Z,14.60
2024-05-09T04:24:49.986Z,14.50
2024-05-09T04:26:51.787Z,14.50
2024-05-09T04:28:53.661Z,14.60
2024-05-09T04:30:55.734Z,14.50
2024-05-09T04:32:57.731Z,14.50
2024-05-09T04:34:59.675Z,14.50
2024-05-09T04:37:01.957Z,14.50
2024-05-09T04:39:03.845Z,14.50
2024-05-09T04:41:05.699Z,14.50
2024-05-09T04:43:14.216Z,14.50
2024-05-09T04:45:16.034Z,14.50
2024-05-09T04:47:18.056Z,14.40
2024-05-09T04:49:20.253Z,14.40
2024-05-09T04:51:22.109Z,14.40
2024-05-09T04:53:23.982Z,14.40
2024-05-09T04:55:25.884Z,14.50
2024-05-09T04:57:27.682Z,14.40
2024-05-09T04:59:29.721Z,14.40
2024-05-09T05:01:31.644Z,14.40
2024-05-09T05:03:33.578Z,14.40
2024-05-09T05:05:37.965Z,14.40
2024-05-09T05:07:39.965Z,14.40
2024-05-09T05:09:41.752Z,14.50
2024-05-09T05:11:43.676Z,14.40
2024-05-09T05:13:45.777Z,14.50
2024-05-09T05:15:47.638Z,14.50
2024-05-09T05:17:49.570Z,14.50
2024-05-09T05:19:51.867Z,14.50
2024-05-09T05:21:53.780Z,14.60
2024-05-09T05:23:55.609Z,14.60
2024-05-09T05:25:57.518Z,14.60
2024-05-09T05:27:59.368Z,14.60
2024-05-09T05:30:01.243Z,14.60
2024-05-09T05:32:03.212Z,14.60
2024-05-09T05:34:05.459Z,14.70
2024-05-09T05:36:07.459Z,14.70
2024-05-09T05:38:09.822Z,14.70
2024-05-09T05:40:14.671Z,14.70
2024-05-09T05:42:19.241Z,14.70
2024-05-09T05:44:21.119Z,14.70
2024-05-09T05:46:23.856Z,14.70
2024-05-09T05:48:25.857Z,14.80
2024-05-09T05:50:34.725Z,14.80
2024-05-09T05:52:38.887Z,14.80
2024-05-09T05:54:40.703Z,14.80
2024-05-09T05:56:42.532Z,14.90
2024-05-09T05:58:44.432Z,14.90
2024-05-09T06:00:46.380Z,14.90
2024-05-09T06:02:48.458Z,14.90
2024-05-09T06:04:50.567Z,14.90
2024-05-09T06:06:52.523Z,15.00
2024-05-09T06:08:54.578Z,15.00
2024-05-09T06:10:56.677Z,15.00
2024-05-09T06:12:58.618Z,15.00
2024-05-09T06:15:00.703Z,15.10
2024-05-09T06:17:02.718Z,15.10
2024-05-09T06:19:04.763Z,15.10
2024-05-09T06:21:06.726Z,15.10
2024-05-09T06:23:09.379Z,15.20
2024-05-09T06:25:11.793Z,15.20
2024-05-09T06:27:13.637Z,15.20
2024-05-09T06:29:15.587Z,15.20
2024-05-09T06:31:17.644Z,15.30
2024-05-09T06:33:19.708Z,15.30
2024-05-09T06:35:21.623Z,15.30
2024-05-09T06:37:23.440Z,15.40
2024-05-09T06:39:25.283Z,15.40
2024-05-09T06:41:27.316Z,15.40
2024-05-09T06:43:29.434Z,15.50
2024-05-09T06:45:31.360Z,15.50
2024-05-09T06:47:33.293Z,15.50
2024-05-09T06:49:35.248Z,15.60
2024-05-09T06:51:46.251Z,15.60
2024-05-09T06:53:48.094Z,15.60
2024-05-09T06:55:50.254Z,15.70
2024-05-09T06:57:52.278Z,15.70
2024-05-09T06:59:56.478Z,15.80
2024-05-09T07:01:58.313Z,15.80
2024-05-09T07:04:00.303Z,15.80
2024-05-09T07:06:02.256Z,15.80
2024-05-09T07:08:04.674Z,15.90
2024-05-09T07:10:09.958Z,15.90
2024-05-09T07:12:14.095Z,15.90
2024-05-09T07:14:16.200Z,16.00
2024-05-09T07:16:18.116Z,16.00
2024-05-09T07:18:21.012Z,16.10
2024-05-09T07:20:31.892Z,16.10
2024-05-09T07:22:36.611Z,16.20
2024-05-09T07:24:38.441Z,16.20
2024-05-09T07:26:40.335Z,16.30
2024-05-09T07:28:42.318Z,16.30
2024-05-09T07:30:44.492Z,16.30
2024-05-09T07:32:46.677Z,16.40
2024-05-09T07:34:48.726Z,16.40
2024-05-09T07:36:50.601Z,16.50
2024-05-09T07:38:52.540Z,16.50
2024-05-09T07:40:54.736Z,16.50
2024-05-09T07:42:56.623Z,16.60
2024-05-09T07:45:14.733Z,16.60
2024-05-09T07:48:29.288Z,16.70
2024-05-09T07:51:32.285Z,16.70
2024-05-09T07:54:09.602Z,16.80
2024-05-09T07:56:12.816Z,16.90
2024-05-09T07:58:14.972Z,16.90
2024-05-09T08:00:20.484Z,16.90
2024-05-09T08:02:28.947Z,17.00
2024-05-09T08:04:30.967Z,17.10
2024-05-09T08:06:33.527Z,17.10
2024-05-09T08:08:35.420Z,17.10
2024-05-09T08:10:37.413Z,17.20
2024-05-09T08:12:39.255Z,17.20
2024-05-09T08:14:41.146Z,17.30
2024-05-09T08:16:42.964Z,17.30
2024-05-09T08:18:44.967Z,17.30
2024-05-09T08:20:48.097Z,17.40
2024-05-09T08:22:49.941Z,17.40
2024-05-09T08:24:51.866Z,17.50
2024-05-09T08:26:53.755Z,17.50
2024-05-09T08:28:55.585Z,17.50
2024-05-09T08:30:57.531Z,17.60
2024-05-09T08:32:59.590Z,17.60
2024-05-09T08:35:01.634Z,17.60
2024-05-09T08:37:12.718Z,17.70
2024-05-09T08:39:17.960Z,17.70
2024-05-09T08:41:19.844Z,17.70
2024-05-09T08:43:23.522Z,17.80
2024-05-09T08:45:25.608Z,17.80
2024-05-09T08:47:31.183Z,17.80
2024-05-09T08:49:33.279Z,17.90
2024-05-09T08:51:35.236Z,17.80
2024-05-09T08:53:37.148Z,17.90
2024-05-09T08:55:42.648Z,17.90
2024-05-09T08:57:46.112Z,18.00
2024-05-09T08:59:50.876Z,18.00
2024-05-09T09:01:53.076Z,18.10
2024-05-09T09:03:55.240Z,18.10
2024-05-09T09:06:07.045Z,18.20
2024-05-09T09:08:09.130Z,18.20
2024-05-09T09:10:17.679Z,18.30
2024-05-09T09:12:23.134Z,18.30
2024-05-09T09:14:24.966Z,18.30
2024-05-09T09:16:33.832Z,18.40
2024-05-09T09:18:36.806Z,18.50
2024-05-09T09:20:38.869Z,18.50
2024-05-09T09:22:40.760Z,18.60
2024-05-09T09:24:42.610Z,18.70
2024-05-09T09:26:47.456Z,18.70
2024-05-09T09:28:49.320Z,18.80
2024-05-09T09:30:52.295Z,18.80
2024-05-09T09:32:57.282Z,18.90
2024-05-09T09:34:59.234Z,19.00
2024-05-09T09:37:05.328Z,19.00
2024-05-09T09:39:07.435Z,19.10
2024-05-09T09:41:11.162Z,19.10
2024-05-09T09:43:14.754Z,19.20
2024-05-09T09:45:17.006Z,19.30
2024-05-09T09:47:19.152Z,19.30
2024-05-09T09:49:21.827Z,19.40
2024-05-09T09:51:24.637Z,19.40
2024-05-09T09:53:26.626Z,19.50
2024-05-09T09:55:28.745Z,19.60
2024-05-09T09:59:52.539Z,19.70
2024-05-09T10:01:55.233Z,19.70
2024-05-09T10:03:57.788Z,19.80
2024-05-09T10:06:00.380Z,19.80
2024-05-09T10:08:06.387Z,19.90
2024-05-09T10:10:11.015Z,19.90
2024-05-09T10:12:13.786Z,20.00
2024-05-09T10:14:20.539Z,20.00
2024-05-09T10:16:23.187Z,20.00
2024-05-09T10:18:35.818Z,20.10
2024-05-09T10:20:41.509Z,20.10
2024-05-09T10:22:50.484Z,20.20
2024-05-09T10:24:53.289Z,20.20
2024-05-09T10:26:55.908Z,20.30
2024-05-09T10:28:58.768Z,20.30
2024-05-09T10:31:11.033Z,20.30
2024-05-09T10:33:13.188Z,20.40
2024-05-09T10:35:19.542Z,20.50
2024-05-09T10:37:21.985Z,20.60
2024-05-09T10:39:25.174Z,20.60
2024-05-09T10:41:27.084Z,20.60
2024-05-09T10:43:30.995Z,20.70
2024-05-09T10:45:35.060Z,20.80
2024-05-09T10:47:37.055Z,20.80
2024-05-09T10:49:39.089Z,20.80
2024-05-09T10:51:44.614Z,20.90
2024-05-09T10:53:47.678Z,21.00
2024-05-09T10:55:59.504Z,21.00
2024-05-09T10:58:01.388Z,21.00
2024-05-09T11:00:06.323Z,21.10
2024-05-09T11:02:10.704Z,21.20
2024-05-09T11:04:13.839Z,21.30
2024-05-09T11:06:16.640Z,21.30
2024-05-09T11:08:22.145Z,21.40
2024-05-09T11:10:31.824Z,21.50
2024-05-09T11:12:36.017Z,21.60
2024-05-09T11:14:37.880Z,21.70
2024-05-09T11:16:39.755Z,21.80
2024-05-09T11:18:42.052Z,21.80
2024-05-09T11:20:44.117Z,21.90
2024-05-09T11:22:46.166Z,22.00
2024-05-09T11:24:48.783Z,22.10
2024-05-09T11:26:50.709Z,22.20
2024-05-09T11:28:52.573Z,22.30
2024-05-09T11:31:03.979Z,22.40
2024-05-09T11:33:05.899Z,22.50
2024-05-09T11:35:07.786Z,22.60
2024-05-09T11:37:10.861Z,22.80
2024-05-09T11:39:14.751Z,22.90
2024-05-09T11:41:17.422Z,22.90
2024-05-09T11:43:19.528Z,23.10
2024-05-09T11:45:21.959Z,23.20
2024-05-09T11:47:24.044Z,23.30
2024-05-09T11:49:27.107Z,23.40
2024-05-09T11:51:29.196Z,23.50
2024-05-09T11:53:31.094Z,23.60
2024-05-09T11:55:36.687Z,23.70
2024-05-09T11:57:39.142Z,23.80
2024-05-09T11:59:41.089Z,23.90
2024-05-09T12:01:43.146Z,24.00
2024-05-09T12:03:45.346Z,24.00
2024-05-09T12:05:47.500Z,24.10
2024-05-09T12:07:51.184Z,24.30
2024-05-09T12:09:53.073Z,24.30
2024-05-09T12:11:54.969Z,24.40
2024-05-09T12:13:56.841Z,24.50
2024-05-09T12:15:58.811Z,24.60
2024-05-09T12:18:03.391Z,24.70
2024-05-09T12:20:11.336Z,24.80
2024-05-09T12:22:19.152Z,24.90
2024-05-09T12:24:21.113Z,25.00
2024-05-09T12:26:22.943Z,25.00
2024-05-09T12:28:26.467Z,25.10
2024-05-09T12:30:35.884Z,25.20
2024-05-09T12:32:40.973Z,25.20
2024-05-09T12:34:43.101Z,25.30
2024-05-09T12:36:45.088Z,25.40
2024-05-09T12:38:47.637Z,25.50
2024-05-09T12:40:49.641Z,25.60
2024-05-09T12:42:51.554Z,25.60
2024-05-09T12:44:53.410Z,25.70
2024-05-09T12:46:55.388Z,25.80
2024-05-09T12:48:57.579Z,25.80
2024-05-09T12:51:02.943Z,25.90
2024-05-09T12:53:05.434Z,26.00
2024-05-09T12:58:18.014Z,26.10
2024-05-09T13:00:27.195Z,26.20
2024-05-09T13:02:33.253Z,26.20
2024-05-09T13:04:35.444Z,26.30
2024-05-09T13:06:37.497Z,26.30
2024-05-09T13:08:39.761Z,26.30
2024-05-09T13:10:41.860Z,26.30
2024-05-09T13:12:44.021Z,26.30
2024-05-09T13:14:45.865Z,26.30
2024-05-09T13:16:47.850Z,26.40
2024-05-09T13:18:49.992Z,26.40
2024-05-09T13:20:52.092Z,26.40
2024-05-09T13:22:54.022Z,26.40
2024-05-09T13:24:55.889Z,26.50
2024-05-09T13:26:57.816Z,26.60
2024-05-09T13:28:59.641Z,26.60
2024-05-09T13:31:01.579Z,26.70
2024-05-09T13:33:03.709Z,26.70
2024-05-09T13:35:05.814Z,26.70
2024-05-09T13:37:07.756Z,26.80
2024-05-09T13:39:09.807Z,26.80
2024-05-09T13:41:11.813Z,26.80
2024-05-09T13:43:14.147Z,26.70
2024-05-09T13:45:16.017Z,26.70
2024-05-09T13:47:17.974Z,26.70
2024-05-09T13:49:20.056Z,26.70
2024-05-09T13:51:22.054Z,26.70
2024-05-09T13:53:25.261Z,26.80
2024-05-09T13:55:27.147Z,26.80
2024-05-09T13:57:29.078Z,26.80
2024-05-09T13:59:31.017Z,26.90
2024-05-09T14:01:32.945Z,26.90
2024-05-09T14:03:34.987Z,26.90
2024-05-09T14:05:37.187Z,27.00
2024-05-09T14:07:39.194Z,27.00
2024-05-09T14:09:41.058Z,27.10
2024-05-09T14:11:42.960Z,27.10
2024-05-09T14:13:44.871Z,27.10
2024-05-09T14:15:47.046Z,27.10
2024-05-09T14:17:49.112Z,27.20
2024-05-09T14:19:51.038Z,27.20
2024-05-09T14:21:52.952Z,27.20
2024-05-09T14:23:54.904Z,27.20
2024-05-09T14:25:58.990Z,27.20
2024-05-09T14:28:00.990Z,27.20
2024-05-09T14:30:04.368Z,27.30
2024-05-09T14:32:23.334Z,27.30
2024-05-09T14:34:26.192Z,27.30
2024-05-09T14:36:29.124Z,27.30
2024-05-09T14:38:34.252Z,27.40
2024-05-09T14:40:43.117Z,27.40
2024-05-09T14:43:22.328Z,27.40
2024-05-09T14:46:23.545Z,27.50
2024-05-09T14:48:25.775Z,27.60
2024-05-09T14:53:47.923Z,27.70
2024-05-09T14:55:50.256Z,27.80
2024-05-09T14:57:52.435Z,27.80
2024-05-09T14:59:54.293Z,27.90
2024-05-09T15:01:56.230Z,28.00
2024-05-09T15:03:58.258Z,28.00
2024-05-09T15:06:00.328Z,28.00
2024-05-09T15:08:05.414Z,28.10
2024-05-09T15:10:13.516Z,28.10
2024-05-09T15:12:18.576Z,28.10
2024-05-09T15:14:20.493Z,28.20
2024-05-09T15:16:22.499Z,28.20
2024-05-09T15:18:24.630Z,28.20
2024-05-09T15:20:33.468Z,28.20
2024-05-09T15:22:37.968Z,28.30
2024-05-09T15:24:42.035Z,28.30
2024-05-09T15:26:44.091Z,28.30
2024-05-09T15:28:45.990Z,28.30
2024-05-09T15:30:48.283Z,28.40
2024-05-09T15:32:50.405Z,28.50
2024-05-09T15:34:52.299Z,28.50
2024-05-09T15:36:54.193Z,28.50
2024-05-09T15:38:56.129Z,28.50
2024-05-09T15:40:58.014Z,28.60
2024-05-09T15:42:59.917Z,28.60
2024-05-09T15:45:01.896Z,28.60
2024-05-09T15:47:04.094Z,28.60
2024-05-09T15:49:06.270Z,28.60
2024-05-09T15:51:08.346Z,28.60
2024-05-09T15:53:11.542Z,28.60
2024-05-09T15:55:14.403Z,28.60
2024-05-09T15:57:16.842Z,28.60
2024-05-09T15:59:18.760Z,28.60
2024-05-09T16:01:20.718Z,28.60
2024-05-09T16:03:22.685Z,28.60
2024-05-09T16:05:24.630Z,28.60
2024-05-09T16:07:26.623Z,28.60
2024-05-09T16:09:28.561Z,28.60
2024-05-09T16:11:30.521Z,28.60
2024-05-09T16:13:32.389Z,28.60
2024-05-09T16:15:34.293Z,28.60
2024-05-09T16:17:36.171Z,28.60
2024-05-09T16:19:38.046Z,28.60
2024-05-09T16:21:39.977Z,28.50
2024-05-09T16:23:41.875Z,28.50
2024-05-09T16:25:46.145Z,28.50
2024-05-09T16:27:48.145Z,28.50
2024-05-09T16:29:50.203Z,28.50
2024-05-09T16:31:52.097Z,28.60
2024-05-09T16:33:54.028Z,28.60
2024-05-09T16:35:56.048Z,28.50
2024-05-09T16:37:58.002Z,28.50
2024-05-09T16:39:59.960Z,28.50
2024-05-09T16:42:02.159Z,28.40
2024-05-09T16:44:04.219Z,28.30
2024-05-09T16:46:06.270Z,28.20
2024-05-09T16:48:08.927Z,28.10
2024-05-09T16:50:12.870Z,28.00
2024-05-09T16:52:20.925Z,27.90
2024-05-09T16:54:22.802Z,27.70
2024-05-09T16:56:24.771Z,27.60
2024-05-09T16:58:26.977Z,27.40
2024-05-09T17:00:39.168Z,27.30
2024-05-09T17:02:44.514Z,27.10
2024-05-09T17:04:46.556Z,27.00
2024-05-09T17:06:48.747Z,26.80
2024-05-09T17:08:50.677Z,26.70
2024-05-09T17:10:52.746Z,26.50
2024-05-09T17:12:54.800Z,26.40
2024-05-09T17:14:56.733Z,26.20
2024-05-09T17:16:58.763Z,26.10
2024-05-09T17:19:00.811Z,25.90
2024-05-09T17:21:02.692Z,25.80
2024-05-09T17:23:05.996Z,25.70
2024-05-09T17:25:08.337Z,25.60
2024-05-09T17:27:10.354Z,25.40
2024-05-09T17:29:12.556Z,25.30
2024-05-09T17:31:14.636Z,25.20
2024-05-09T17:33:16.727Z,25.10
2024-05-09T17:35:19.581Z,25.00
2024-05-09T17:37:21.645Z,24.90
2024-05-09T17:39:23.748Z,24.80
2024-05-09T17:41:25.608Z,24.70
2024-05-09T17:43:28.261Z,24.60
2024-05-09T17:45:30.351Z,24.40
2024-05-09T17:47:34.399Z,24.30
2024-05-09T17:49:36.386Z,24.30
2024-05-09T17:51:38.453Z,24.10
2024-05-09T17:53:40.327Z,24.00
2024-05-09T17:55:42.664Z,23.90
2024-05-09T17:57:44.528Z,23.80
2024-05-09T17:59:46.465Z,23.70
2024-05-09T18:01:48.637Z,23.60
2024-05-09T18:03:50.775Z,23.50
2024-05-09T18:05:52.917Z,23.40
2024-05-09T18:07:56.972Z,23.30
2024-05-09T18:09:58.899Z,23.20
2024-05-09T18:12:01.869Z,23.10
2024-05-09T18:14:03.852Z,23.00
2024-05-09T18:16:06.214Z,22.90
2024-05-09T18:18:09.158Z,22.80
2024-05-09T18:20:17.071Z,22.70
2024-05-09T18:22:23.716Z,22.60
2024-05-09T18:24:26.568Z,22.50
2024-05-09T18:26:28.405Z,22.40
2024-05-09T18:28:30.388Z,22.30
2024-05-09T18:30:35.421Z,22.30
2024-05-09T18:32:38.855Z,22.10
2024-05-09T18:34:40.914Z,22.00
2024-05-09T18:36:43.257Z,22.00
2024-05-09T18:38:45.157Z,21.90
2024-05-09T18:40:49.018Z,21.80
2024-05-09T18:42:51.655Z,21.80
2024-05-09T18:44:53.616Z,21.70
2024-05-09T18:46:55.535Z,21.60
2024-05-09T18:48:57.885Z,21.50
2024-05-09T18:51:00.177Z,21.50
2024-05-09T18:53:02.191Z,21.40
2024-05-09T18:55:05.496Z,21.40
2024-05-09T18:57:07.508Z,21.30
2024-05-09T18:59:09.470Z,21.20
2024-05-09T19:01:11.435Z,21.20
2024-05-09T19:03:14.677Z,21.10
2024-05-09T19:05:17.138Z,21.00
2024-05-09T19:07:19.530Z,21.00
2024-05-09T19:09:21.412Z,20.90
2024-05-09T19:11:23.327Z,20.80
2024-05-09T19:13:25.475Z,20.80
2024-05-09T19:15:27.475Z,20.80
2024-05-09T19:17:29.495Z,20.70
2024-05-09T19:19:31.693Z,20.60
2024-05-09T19:21:33.792Z,20.60
2024-05-09T19:23:38.330Z,20.50
2024-05-09T19:25:43.032Z,20.40
2024-05-09T19:27:45.603Z,20.40
2024-05-09T19:29:47.503Z,20.30
2024-05-09T19:31:49.412Z,20.30
2024-05-09T19:33:51.797Z,20.20
2024-05-09T19:35:54.101Z,20.10
2024-05-09T19:37:56.024Z,20.10
2024-05-09T19:39:58.155Z,20.10
2024-05-09T19:42:00.118Z,20.00
2024-05-09T19:44:01.996Z,20.00
2024-05-09T19:46:04.405Z,19.90
2024-05-09T19:48:06.934Z,19.80
2024-05-09T19:50:13.968Z,19.80
2024-05-09T19:52:21.439Z,19.70
2024-05-09T19:54:23.339Z,19.70
2024-05-09T19:56:25.265Z,19.60
2024-05-09T19:58:27.322Z,19.60
2024-05-09T20:00:35.419Z,19.60
2024-05-09T20:02:38.794Z,19.50
2024-05-09T20:04:42.896Z,19.50
2024-05-09T20:06:44.924Z,19.40
2024-05-09T20:08:46.899Z,19.40
2024-05-09T20:10:48.993Z,19.30
2024-05-09T20:12:50.980Z,19.30
2024-05-09T20:14:52.836Z,19.30
2024-05-09T20:16:55.079Z,19.20
2024-05-09T20:19:02.684Z,19.20
2024-05-09T20:21:06.528Z,19.10
2024-05-09T20:23:08.815Z,19.10
2024-05-09T20:25:10.909Z,19.10
2024-05-09T20:27:12.865Z,19.00
2024-05-09T20:29:14.797Z,19.00
2024-05-09T20:31:22.963Z,19.00
2024-05-09T20:33:24.931Z,19.00
2024-05-09T20:35:26.981Z,18.90
2024-05-09T20:37:29.104Z,18.90
2024-05-09T20:39:30.953Z,18.90
2024-05-09T20:41:35.175Z,18.90
2024-05-09T20:43:37.829Z,18.90
2024-05-09T20:45:40.307Z,18.80
2024-05-09T20:47:42.668Z,18.80
2024-05-09T20:49:46.160Z,18.80
2024-05-09T20:51:48.122Z,18.70
2024-05-09T20:53:50.099Z,18.70
2024-05-09T20:55:52.170Z,18.70
2024-05-09T20:57:54.102Z,18.70
2024-05-09T20:59:56.015Z,18.60
2024-05-09T21:01:58.035Z,18.60
2024-05-09T21:04:00.496Z,18.60
2024-05-09T21:06:02.489Z,18.50
2024-05-09T21:08:04.580Z,18.50
2024-05-09T21:10:15.115Z,18.50
2024-05-09T21:12:17.949Z,18.50
2024-05-09T21:14:19.780Z,18.40
2024-05-09T21:16:21.950Z,18.40
2024-05-09T21:18:23.938Z,18.40
2024-05-09T21:20:31.166Z,18.40
2024-05-09T21:22:34.500Z,18.40
2024-05-09T21:24:36.386Z,18.30
2024-05-09T21:26:38.216Z,18.30
2024-05-09T21:28:40.198Z,18.30
2024-05-09T21:30:43.241Z,18.30
2024-05-09T21:32:45.526Z,18.20
2024-05-09T21:34:47.497Z,18.20
2024-05-09T21:36:49.444Z,18.20
2024-05-09T21:38:51.334Z,18.20
2024-05-09T21:40:53.850Z,18.20
2024-05-09T21:42:55.876Z,18.10
2024-05-09T21:44:57.754Z,18.10
2024-05-09T21:46:59.565Z,18.10
2024-05-09T21:49:01.464Z,18.10
2024-05-09T21:51:03.370Z,18.10
2024-05-09T21:53:05.300Z,18.00
2024-05-09T21:55:07.286Z,18.00
2024-05-09T21:57:10.066Z,18.00
2024-05-09T21:59:12.040Z,18.00
2024-05-09T22:01:13.950Z,17.90
2024-05-09T22:03:15.991Z,17.90
2024-05-09T22:05:18.126Z,17.90
2024-05-09T22:07:20.066Z,17.90
2024-05-09T22:09:21.889Z,17.90
2024-05-09T22:11:23.996Z,17.80
2024-05-09T22:13:26.166Z,17.80
2024-05-09T22:15:28.188Z,17.80
2024-05-09T22:17:30.078Z,17.80
2024-05-09T22:19:32.022Z,17.70
2024-05-09T22:21:33.946Z,17.70
2024-05-09T22:23:35.809Z,17.70
2024-05-09T22:25:38.661Z,17.70
2024-05-09T22:27:40.676Z,17.70
2024-05-09T22:29:42.499Z,17.70
2024-05-09T22:31:44.326Z,17.60
2024-05-09T22:33:48.199Z,17.60
2024-05-09T22:35:51.474Z,17.60
2024-05-09T22:37:53.501Z,17.60
2024-05-09T22:39:55.493Z,17.60
2024-05-09T22:41:57.358Z,17.60
2024-05-09T22:44:01.405Z,17.50
2024-05-09T22:46:03.677Z,17.50
2024-05-09T22:48:05.927Z,17.50
2024-05-09T22:50:12.846Z,17.50
2024-05-09T22:52:15.060Z,17.50
2024-05-09T22:54:17.049Z,17.50
2024-05-09T22:56:28.478Z,17.40
2024-05-09T22:58:30.376Z,17.40
2024-05-09T23:00:33.203Z,17.40
2024-05-09T23:02:35.384Z,17.40
2024-05-09T23:04:38.470Z,17.40
2024-05-09T23:06:40.766Z,17.40
2024-05-09T23:08:42.585Z,17.40
2024-05-09T23:10:44.490Z,17.30
2024-05-09T23:12:46.431Z,17.30
2024-05-09T23:14:48.247Z,17.30
2024-05-09T23:16:50.096Z,17.30
2024-05-09T23:18:52.073Z,17.30
2024-05-09T23:20:54.029Z,17.30
2024-05-09T23:22:55.933Z,17.20
2024-05-09T23:24:58.006Z,17.20
2024-05-09T23:26:59.900Z,17.20
2024-05-09T23:29:02.306Z,17.20
2024-05-09T23:31:04.367Z,17.20
2024-05-09T23:33:06.557Z,17.20
2024-05-09T23:35:08.626Z,17.20
2024-05-09T23:37:10.894Z,17.10
2024-05-09T23:39:12.799Z,17.10
2024-05-09T23:41:14.959Z,17.10
2024-05-09T23:43:17.358Z,17.10
2024-05-09T23:45:19.195Z,17.10
2024-05-09T23:47:21.086Z,17.10
2024-05-09T23:49:22.979Z,17.10
2024-05-09T23:51:24.931Z,17.10
2024-05-09T23:53:26.784Z,17.10
2024-05-09T23:55:29.042Z,17.10
2024-05-09T23:57:30.860Z,17.00
2024-05-09T23:59:32.674Z,17.00
